Pledger, Texas
Current Conditions -  °F | °C
As of 3:55 AM on Friday 28 Nov 2014 (Local Time) from KARM Reporting Station
Clear Clear  
Wind Chill: 45°   Ceiling: Unl
Heat Index: 45°   Visibility: 10mi
Dew Point: 41°   Wind: 3mph
Humidity: 87%   Direction: 80°E
Pressure: 30.36"   Gusts: NA
Location:  29.18°N, 95.91°W
Report Text: KARM 280955Z AUTO 08003KT 10SM CLR 07/05 A3036 RMK AO2 T00700050
Loading
Personal Weather Stations






























Interactive Weather Map New forecast layout! Learn more

10-Day Weather Forecast

Advertisements
Track Severe Weather on mobile